Time;durP1;ratioP1;P1;durP2;ratioP2;P2;SDS_P1;SDS_P2;PMS_P1;PMS_P2;Temp;Humidity;BMP_temperature;BMP_pressure;BME280_temperature;BME280_humidity;BME280_pressure;Samples;Min_cycle;Max_cycle;Signal;HPM_P1;HPM_P2
2024/03/08 00:02:03;;;;;;;;;;;;;;;7.18;100.00;99410.47;4973301;28;19918;-84
2024/03/08 00:04:28;;;;;;;;;;;;;;;7.19;100.00;99406.94;4972956;28;19945;-89
2024/03/08 00:06:53;;;;;;;;;;;;;;;7.13;100.00;99401.88;4955780;28;20391;-87
2024/03/08 00:09:18;;;;;;;;;;;;;;;7.16;100.00;99407.03;4973953;28;20365;-88
2024/03/08 00:11:44;;;;;;;;;;;;;;;7.14;100.00;99398.31;4973348;28;20293;-91
2024/03/08 00:14:09;;;;;;;;;;;;;;;7.17;100.00;99398.22;4954782;28;19977;-85
2024/03/08 00:16:35;;;;;;;;;;;;;;;7.17;100.00;99403.50;4973061;28;19918;-90
2024/03/08 00:19:00;;;;;;;;;;;;;;;7.16;100.00;99399.13;4972913;28;20009;-90
2024/03/08 00:21:26;;;;;;;;;;;;;;;7.17;100.00;99392.94;4955696;28;19924;-89
2024/03/08 00:23:54;;;;;;;;;;;;;;;7.12;100.00;99385.22;4972275;28;20340;-87
2024/03/08 00:26:19;;;;;;;;;;;;;;;7.19;100.00;99388.47;4972717;28;20001;-89
2024/03/08 00:28:44;;;;;;;;;;;;;;;7.18;100.00;99379.72;4954089;28;19922;-85
2024/03/08 00:31:09;;;;;;;;;;;;;;;7.22;100.00;99383.97;4973183;28;19922;-83
2024/03/08 00:33:34;;;;;;;;;;;;;;;7.19;100.00;99378.78;4955070;28;19926;-87
2024/03/08 00:36:00;;;;;;;;;;;;;;;7.21;100.00;99382.25;4955840;28;19953;-87
2024/03/08 00:38:25;;;;;;;;;;;;;;;7.20;100.00;99384.94;4972652;28;20368;-88
2024/03/08 00:40:50;;;;;;;;;;;;;;;7.13;100.00;99375.53;4973028;28;20425;-88
2024/03/08 00:43:15;;;;;;;;;;;;;;;7.11;100.00;99380.00;4955458;28;19926;-83
2024/03/08 00:45:42;;;;;;;;;;;;;;;7.39;100.00;99372.81;4971619;28;19933;-86
2024/03/08 00:48:08;;;;;;;;;;;;;;;7.27;100.00;99373.25;4974119;28;20342;-90
2024/03/08 00:50:33;;;;;;;;;;;;;;;7.19;100.00;99367.41;4960004;28;20009;-90
2024/03/08 00:52:59;;;;;;;;;;;;;;;7.16;100.00;99372.78;4977806;28;19945;-89
2024/03/08 00:55:25;;;;;;;;;;;;;;;7.12;100.00;99363.28;4977990;28;20021;-89
2024/03/08 06:12:43;;;;;;;;;;;;;;;6.58;100.00;99141.34;5184317;23;19937;-81
2024/03/08 06:15:09;;;;;;;;;;;;;;;6.57;100.00;99140.47;4993256;28;20669;-82
2024/03/08 06:20:43;;;;;;;;;;;;;;;6.60;100.00;99145.63;4984023;28;19976;-84
2024/03/08 06:23:09;;;;;;;;;;;;;;;6.59;100.00;99143.94;4976994;28;19921;-80
2024/03/08 06:25:34;;;;;;;;;;;;;;;6.56;100.00;99146.69;4991267;28;20009;-82
2024/03/08 06:28:00;;;;;;;;;;;;;;;6.59;100.00;99143.06;4994328;28;20384;-82
2024/03/08 06:30:25;;;;;;;;;;;;;;;6.56;100.00;99138.78;4994508;28;20265;-85
2024/03/08 06:32:51;;;;;;;;;;;;;;;6.58;100.00;99141.34;4976765;28;20308;-86
2024/03/08 06:35:16;;;;;;;;;;;;;;;6.62;100.00;99148.22;4994403;28;19922;-82
2024/03/08 06:37:44;;;;;;;;;;;;;;;6.59;100.00;99143.06;4994353;28;20280;-81
2024/03/08 06:40:13;;;;;;;;;;;;;;;6.60;100.00;99143.00;4992825;28;20352;-83
2024/03/08 06:42:39;;;;;;;;;;;;;;;6.53;100.00;99150.28;4992545;28;19926;-81
2024/03/08 06:45:05;;;;;;;;;;;;;;;6.55;100.00;99153.69;4994030;28;20369;-82
2024/03/08 06:47:30;;;;;;;;;;;;;;;6.56;100.00;99149.31;4993652;28;20008;-83
2024/03/08 06:49:56;;;;;;;;;;;;;;;6.55;100.00;99155.47;4994027;28;20293;-83
2024/03/08 06:52:22;;;;;;;;;;;;;;;6.57;100.00;99147.53;4993890;28;19918;-80
2024/03/08 06:54:50;;;;;;;;;;;;;;;6.57;100.00;99145.75;4993970;28;19972;-82
2024/03/08 06:57:16;;;;;;;;;;;;;;;6.58;100.00;99147.47;4992579;28;19921;-81
2024/03/08 06:59:42;;;;;;;;;;;;;;;6.55;100.00;99145.81;4993743;28;20004;-81
2024/03/08 07:02:09;;;;;;;;;;;;;;;6.55;100.00;99143.16;4993824;28;20115;-81
2024/03/08 07:04:37;;;;;;;;;;;;;;;6.58;100.00;99147.47;4993869;28;19925;-81
2024/03/08 07:07:03;;;;;;;;;;;;;;;6.51;100.00;99145.97;4993508;28;20482;-82
2024/03/08 07:09:28;;;;;;;;;;;;;;;6.53;100.00;99149.41;4993801;28;19929;-83
2024/03/08 07:11:54;;;;;;;;;;;;;;;6.49;100.00;99142.53;4992019;28;19953;-81
2024/03/08 07:14:23;;;;;;;;;;;;;;;6.53;100.00;99138.91;4993546;28;19922;-82
2024/03/08 07:16:49;;;;;;;;;;;;;;;6.54;100.00;99135.31;4993644;28;20011;-80
2024/03/08 07:19:15;;;;;;;;;;;;;;;6.52;100.00;99131.91;4993409;28;19985;-80
2024/03/08 07:21:40;;;;;;;;;;;;;;;6.46;100.00;99121.59;4993622;28;19928;-82
2024/03/08 07:24:58;;;;;;;;;;;;;;;6.47;100.00;99126.81;4993100;28;19913;-81
2024/03/08 07:26:55;;;;;;;;;;;;;;;6.54;100.00;99119.53;4981202;28;19918;-80
2024/03/08 07:29:20;;;;;;;;;;;;;;;6.52;100.00;99116.09;4993369;28;19924;-80
2024/03/08 07:34:31;;;;;;;;;;;;;;;6.46;100.00;99116.31;4993636;28;20300;-81
2024/03/08 07:36:57;;;;;;;;;;;;;;;6.47;100.00;99120.69;4993430;28;19917;-81
2024/03/08 07:39:23;;;;;;;;;;;;;;;6.48;100.00;99127.69;4992976;28;19924;-81
2024/03/08 07:41:48;;;;;;;;;;;;;;;6.46;100.00;99116.31;4974630;28;20012;-81
2024/03/08 07:44:14;;;;;;;;;;;;;;;6.48;100.00;99125.06;4993109;28;20040;-84
2024/03/08 07:46:41;;;;;;;;;;;;;;;6.44;100.00;99115.53;4993090;28;19917;-84
2024/03/08 07:49:06;;;;;;;;;;;;;;;6.45;100.00;99114.63;4992987;28;19965;-80
2024/03/08 07:51:31;;;;;;;;;;;;;;;6.45;100.00;99115.47;4992866;28;20316;-81
2024/03/08 07:53:57;;;;;;;;;;;;;;;6.45;100.00;99109.38;4992960;28;19936;-81
2024/03/08 08:49:14;;;;;;;;;;;;;;;6.34;100.00;99065.88;5139763;23;19926;-85
2024/03/08 08:51:39;;;;;;;;;;;;;;;6.39;100.00;99060.44;5011994;28;20291;-85
2024/03/08 08:54:06;;;;;;;;;;;;;;;6.39;100.00;99064.84;4978482;28;19929;-85
2024/03/08 08:56:31;;;;;;;;;;;;;;;6.34;100.00;99057.13;5012224;28;19984;-89
2024/03/08 08:58:57;;;;;;;;;;;;;;;6.35;100.00;99067.59;5012390;28;19921;-81
2024/03/08 09:01:23;;;;;;;;;;;;;;;6.35;100.00;99072.84;5011974;28;20392;-88
2024/03/08 09:03:49;;;;;;;;;;;;;;;6.39;100.00;99067.47;4993224;28;19936;-87
2024/03/08 09:06:15;;;;;;;;;;;;;;;6.36;100.00;99068.44;4995436;28;19975;-83
2024/03/08 09:08:40;;;;;;;;;;;;;;;6.35;100.00;99069.34;5011856;28;19925;-88
2024/03/08 09:11:06;;;;;;;;;;;;;;;6.31;100.00;99063.34;5014120;28;20023;-86
2024/03/08 09:13:31;;;;;;;;;;;;;;;6.38;100.00;99066.59;5015395;28;19921;-88
2024/03/08 09:15:57;;;;;;;;;;;;;;;6.38;100.00;99063.97;5015477;28;19980;-86
2024/03/08 09:18:23;;;;;;;;;;;;;;;6.40;100.00;99063.91;5014068;28;20356;-88
2024/03/08 09:20:48;;;;;;;;;;;;;;;6.35;100.00;99057.06;4997791;28;19928;-82
2024/03/08 09:23:14;;;;;;;;;;;;;;;6.39;100.00;99056.97;5015235;28;20000;-82
2024/03/08 09:25:40;;;;;;;;;;;;;;;6.40;100.00;99059.53;5015203;28;19928;-87
2024/03/08 09:28:05;;;;;;;;;;;;;;;6.39;100.00;99043.81;5014995;28;19918;-83
2024/03/08 09:30:31;;;;;;;;;;;;;;;6.33;100.00;99040.50;5015186;28;19918;-82
2024/03/08 09:32:56;;;;;;;;;;;;;;;6.30;100.00;99045.88;5013786;28;19918;-88
2024/03/08 09:35:21;;;;;;;;;;;;;;;6.35;100.00;99041.28;5015076;28;20296;-82
2024/03/08 09:37:50;;;;;;;;;;;;;;;6.32;100.00;99035.28;5015057;28;19913;-92
2024/03/08 09:40:16;;;;;;;;;;;;;;;6.33;100.00;99024.72;5014827;28;20480;-81
2024/03/08 09:42:42;;;;;;;;;;;;;;;6.36;100.00;99024.56;5014894;28;19925;-86
2024/03/08 09:45:11;;;;;;;;;;;;;;;6.36;100.00;99018.44;5014928;28;19913;-87
2024/03/08 09:47:38;;;;;;;;;;;;;;;6.32;100.00;99020.34;5013537;28;19927;-88
2024/03/08 09:50:04;;;;;;;;;;;;;;;6.41;100.00;99019.13;4997141;28;19925;-84
2024/03/08 09:52:30;;;;;;;;;;;;;;;6.37;100.00;99012.28;5013776;28;20261;-85
2024/03/08 09:54:56;;;;;;;;;;;;;;;6.32;100.00;99004.56;5014565;28;19973;-84
2024/03/08 09:57:21;;;;;;;;;;;;;;;6.33;100.00;99015.94;5014718;28;19917;-81
2024/03/08 09:59:48;;;;;;;;;;;;;;;6.34;100.00;99007.97;5014653;28;19917;-83
2024/03/08 10:02:17;;;;;;;;;;;;;;;6.28;100.00;99008.22;5013347;28;19917;-83
2024/03/08 10:04:42;;;;;;;;;;;;;;;6.32;100.00;99008.97;5013931;28;20327;-81
2024/03/08 10:07:08;;;;;;;;;;;;;;;6.29;100.00;99004.66;4996841;28;19980;-81
2024/03/08 10:09:33;;;;;;;;;;;;;;;6.28;100.00;98991.56;5014615;28;19917;-83
2024/03/08 10:11:58;;;;;;;;;;;;;;;6.26;100.00;98998.69;5014423;28;20390;-84
2024/03/08 10:14:24;;;;;;;;;;;;;;;6.31;100.00;98992.31;5014250;28;20329;-83
2024/03/08 10:16:49;;;;;;;;;;;;;;;6.32;100.00;98988.78;4996548;28;19921;-82
2024/03/08 10:19:15;;;;;;;;;;;;;;;6.32;100.00;98983.50;5012909;28;19928;-84
2024/03/08 10:21:47;;;;;;;;;;;;;;;6.30;100.00;98982.72;5012200;28;19992;-80
2024/03/08 10:24:13;;;;;;;;;;;;;;;6.33;100.00;98977.34;5013624;28;19921;-81
2024/03/08 10:26:39;;;;;;;;;;;;;;;6.33;100.00;98990.50;5012816;28;19940;-82
2024/03/08 10:29:04;;;;;;;;;;;;;;;6.29;100.00;98977.50;5013375;28;19992;-84
2024/03/08 10:31:32;;;;;;;;;;;;;;;6.27;100.00;98969.69;5013687;28;20331;-82
2024/03/08 10:33:57;;;;;;;;;;;;;;;6.29;100.00;98962.56;5012542;28;19925;-85
2024/03/08 10:36:22;;;;;;;;;;;;;;;6.26;100.00;98965.31;5013842;28;20064;-86
2024/03/08 10:38:52;;;;;;;;;;;;;;;6.31;100.00;98968.63;5013788;28;20004;-86
2024/03/08 10:41:18;;;;;;;;;;;;;;;6.27;100.00;98964.41;5013737;28;19922;-85
2024/03/08 10:44:06;;;;;;;;;;;;;;;6.26;100.00;98962.69;5013820;28;19929;-86
2024/03/08 10:46:54;;;;;;;;;;;;;;;6.21;100.00;98956.75;5013902;28;19964;-82
2024/03/08 10:49:24;;;;;;;;;;;;;;;6.30;100.00;98952.91;5012734;28;20015;-82
2024/03/08 10:51:51;;;;;;;;;;;;;;;6.28;100.00;98950.31;5013457;28;19963;-82
2024/03/08 10:54:18;;;;;;;;;;;;;;;6.26;100.00;98952.16;5013743;28;19949;-82
2024/03/08 10:56:44;;;;;;;;;;;;;;;6.28;100.00;98945.06;5014437;28;19964;-80
2024/03/08 10:59:10;;;;;;;;;;;;;;;6.32;100.00;98956.34;5013567;28;20016;-81
2024/03/08 11:01:36;;;;;;;;;;;;;;;6.30;100.00;98950.25;4995750;28;19928;-81
2024/03/08 11:04:04;;;;;;;;;;;;;;;6.30;100.00;98948.53;5012089;28;20040;-83
2024/03/08 11:06:37;;;;;;;;;;;;;;;6.35;100.00;98946.56;5012544;28;21371;-85
2024/03/08 11:09:03;;;;;;;;;;;;;;;6.29;100.00;98946.78;5013379;28;19917;-84
2024/03/08 11:11:32;;;;;;;;;;;;;;;6.31;100.00;98937.06;5013191;28;19924;-82
2024/03/08 11:13:58;;;;;;;;;;;;;;;6.35;100.00;98933.41;5012506;28;19929;-81
2024/03/08 11:16:26;;;;;;;;;;;;;;;6.30;100.00;98938.00;5012947;28;19918;-81
2024/03/08 11:18:55;;;;;;;;;;;;;;;6.29;100.00;98920.47;4994229;28;19924;-81
2024/03/08 11:21:23;;;;;;;;;;;;;;;6.30;100.00;98923.97;4995340;28;20449;-79
2024/03/08 11:24:01;;;;;;;;;;;;;;;6.31;100.00;98928.31;5012393;28;19921;-83
2024/03/08 11:26:27;;;;;;;;;;;;;;;6.29;100.00;98917.84;4995615;28;19917;-86
2024/03/08 11:28:55;;;;;;;;;;;;;;;6.24;100.00;98903.16;4995228;28;19952;-81
2024/03/08 11:31:24;;;;;;;;;;;;;;;6.27;100.00;98900.41;4995848;28;19917;-86
2024/03/08 11:33:50;;;;;;;;;;;;;;;6.29;100.00;98901.22;5010832;28;19943;-82
2024/03/08 11:36:22;;;;;;;;;;;;;;;6.31;100.00;98897.59;5012778;28;20392;-85
2024/03/08 11:38:52;;;;;;;;;;;;;;;6.38;100.00;98897.34;5011879;28;20013;-85
2024/03/08 11:41:19;;;;;;;;;;;;;;;6.30;100.00;98898.53;5011747;28;19971;-84
2024/03/08 11:43:45;;;;;;;;;;;;;;;6.32;100.00;98888.78;5012681;28;20360;-85
2024/03/08 11:46:14;;;;;;;;;;;;;;;6.30;100.00;98885.38;5012692;28;19928;-81
2024/03/08 11:48:41;;;;;;;;;;;;;;;6.30;100.00;98880.09;5010465;28;19932;-87
2024/03/08 11:51:07;;;;;;;;;;;;;;;6.33;100.00;98879.09;5012591;28;19921;-89
2024/03/08 11:53:33;;;;;;;;;;;;;;;6.28;100.00;98871.41;5012522;28;19928;-81
2024/03/08 11:56:11;;;;;;;;;;;;;;;6.29;100.00;98869.66;5012524;28;20383;-86
2024/03/08 11:58:37;;;;;;;;;;;;;;;6.27;100.00;98863.56;5035535;28;19917;-85
2024/03/08 12:01:04;;;;;;;;;;;;;;;6.34;100.00;98859.78;5012482;28;20328;-86
2024/03/08 12:03:33;;;;;;;;;;;;;;;6.29;100.00;98851.22;5010504;28;19968;-87
2024/03/08 12:05:59;;;;;;;;;;;;;;;6.33;100.00;98850.16;5011624;28;19991;-87
2024/03/08 12:08:28;;;;;;;;;;;;;;;6.30;100.00;98843.28;5012360;28;19953;-86
2024/03/08 12:10:59;;;;;;;;;;;;;;;6.28;100.00;98836.34;5012256;28;19953;-89
2024/03/08 12:13:29;;;;;;;;;;;;;;;6.31;100.00;98839.72;5018584;28;19925;-86
2024/03/08 12:16:01;;;;;;;;;;;;;;;6.29;100.00;98838.06;5011943;28;19929;-87
2024/03/08 12:18:28;;;;;;;;;;;;;;;6.30;100.00;98830.13;5011094;28;19918;-81
2024/03/08 12:21:14;;;;;;;;;;;;;;;6.28;100.00;98821.41;4994463;28;19948;-80
2024/03/08 12:23:39;;;;;;;;;;;;;;;6.27;100.00;98817.09;5012249;28;19918;-85
2024/03/08 12:26:13;;;;;;;;;;;;;;;6.28;100.00;98816.16;5012287;28;20403;-83
2024/03/08 12:28:38;;;;;;;;;;;;;;;6.31;100.00;98815.19;5035319;28;19947;-84
2024/03/08 12:31:05;;;;;;;;;;;;;;;6.32;100.00;98809.84;5012433;28;20020;-86
2024/03/08 12:33:30;;;;;;;;;;;;;;;6.30;100.00;98809.06;5010680;28;19925;-82
2024/03/08 12:35:58;;;;;;;;;;;;;;;6.28;100.00;98795.09;5012114;28;20360;-84
2024/03/08 12:38:26;;;;;;;;;;;;;;;6.31;100.00;98788.88;5011484;28;20380;-86
2024/03/08 12:40:55;;;;;;;;;;;;;;;6.29;100.00;98803.88;5012184;28;19924;-89
2024/03/08 12:43:20;;;;;;;;;;;;;;;6.28;100.00;98789.84;5012100;28;19924;-86
2024/03/08 12:45:46;;;;;;;;;;;;;;;6.32;100.00;98787.97;4996097;28;19917;-82
2024/03/08 12:48:15;;;;;;;;;;;;;;;6.31;100.00;98779.19;5014666;28;20382;-85
2024/03/08 12:50:45;;;;;;;;;;;;;;;6.26;100.00;98772.44;5015879;28;19917;-87
2024/03/08 12:53:28;;;;;;;;;;;;;;;6.33;100.00;98769.47;5015780;28;20372;-88
2024/03/08 12:55:56;;;;;;;;;;;;;;;6.34;100.00;98765.91;5015795;28;20390;-82
2024/03/08 12:58:21;;;;;;;;;;;;;;;6.29;100.00;98757.34;5015613;28;20311;-83
2024/03/08 13:00:48;;;;;;;;;;;;;;;6.29;100.00;98765.25;5015542;28;19928;-85
2024/03/08 13:03:16;;;;;;;;;;;;;;;6.25;100.00;98754.91;5014449;28;19956;-84
2024/03/08 13:05:55;;;;;;;;;;;;;;;6.32;100.00;98759.88;4997765;28;19972;-90
2024/03/08 13:08:21;;;;;;;;;;;;;;;6.31;100.00;98747.63;4998038;28;19925;-86
2024/03/08 13:10:47;;;;;;;;;;;;;;;6.27;100.00;98732.91;5015218;28;19922;-88
2024/03/08 13:13:13;;;;;;;;;;;;;;;6.31;100.00;98734.47;4997776;28;19917;-90
2024/03/08 13:15:40;;;;;;;;;;;;;;;6.27;100.00;98727.63;4998050;28;19944;-82
2024/03/08 13:18:08;;;;;;;;;;;;;;;6.30;100.00;98727.50;5013645;28;19917;-87
2024/03/08 13:20:37;;;;;;;;;;;;;;;6.27;100.00;98722.38;5015310;28;19917;-82
2024/03/08 13:23:05;;;;;;;;;;;;;;;6.30;100.00;98726.63;4997646;28;19979;-83
2024/03/08 13:25:33;;;;;;;;;;;;;;;6.24;100.00;98717.25;5011229;28;19972;-84
2024/03/08 13:28:00;;;;;;;;;;;;;;;6.26;100.00;98718.03;5014666;28;20300;-88
2024/03/08 13:30:26;;;;;;;;;;;;;;;6.29;100.00;98717.91;5014299;28;19921;-83
2024/03/08 13:32:54;;;;;;;;;;;;;;;6.29;100.00;98711.78;5013679;28;20451;-83
2024/03/08 13:35:27;;;;;;;;;;;;;;;6.27;100.00;98716.25;4997436;28;20004;-81
2024/03/08 13:37:53;;;;;;;;;;;;;;;6.33;100.00;98706.34;5014930;28;19918;-84
2024/03/08 13:40:22;;;;;;;;;;;;;;;6.32;100.00;98709.03;4980677;28;19949;-84
2024/03/08 13:42:48;;;;;;;;;;;;;;;6.33;100.00;98697.56;5014949;28;19923;-87
2024/03/08 13:45:17;;;;;;;;;;;;;;;6.30;100.00;98695.94;4997070;28;19972;-85
2024/03/08 13:47:46;;;;;;;;;;;;;;;6.31;100.00;98702.91;4995839;28;19921;-88
2024/03/08 13:50:12;;;;;;;;;;;;;;;6.25;100.00;98687.38;4996832;28;19976;-84
2024/03/08 13:52:40;;;;;;;;;;;;;;;6.26;100.00;98683.81;5014492;28;19922;-82
2024/03/08 13:55:06;;;;;;;;;;;;;;;6.25;100.00;98690.00;5014662;28;19980;-85
2024/03/08 13:57:32;;;;;;;;;;;;;;;6.24;100.00;98679.53;4995795;28;19924;-85
2024/03/08 13:59:58;;;;;;;;;;;;;;;6.24;100.00;98683.03;5014541;28;19918;-86
2024/03/08 14:02:27;;;;;;;;;;;;;;;6.29;100.00;98678.44;5013344;28;19927;-84
2024/03/08 14:04:53;;;;;;;;;;;;;;;6.26;100.00;98677.72;5014280;28;19917;-83
2024/03/08 14:07:18;;;;;;;;;;;;;;;6.28;100.00;98679.34;5014484;28;20265;-84
2024/03/08 14:09:44;;;;;;;;;;;;;;;6.33;100.00;98669.50;4996811;28;20312;-83
2024/03/08 14:12:13;;;;;;;;;;;;;;;6.31;100.00;98660.81;5012823;28;19924;-86
2024/03/08 14:14:40;;;;;;;;;;;;;;;6.32;100.00;98659.88;5013659;28;19918;-91
2024/03/08 14:17:06;;;;;;;;;;;;;;;6.27;100.00;98658.38;5012896;28;19917;-89
2024/03/08 14:19:33;;;;;;;;;;;;;;;6.30;100.00;98653.84;5014224;28;19921;-82
2024/03/08 14:21:59;;;;;;;;;;;;;;;6.29;100.00;98646.88;4996395;28;20292;-90
2024/03/08 14:24:25;;;;;;;;;;;;;;;6.29;100.00;98657.38;5014201;28;19918;-86
2024/03/08 14:26:52;;;;;;;;;;;;;;;6.27;100.00;98653.97;4996519;28;19920;-87
2024/03/08 14:29:18;;;;;;;;;;;;;;;6.25;100.00;98649.69;5014261;28;19917;-85
2024/03/08 14:31:44;;;;;;;;;;;;;;;6.24;100.00;98648.84;5013952;28;19929;-82
2024/03/08 14:34:10;;;;;;;;;;;;;;;6.29;100.00;98641.59;5012616;28;19917;-82
2024/03/08 14:36:35;;;;;;;;;;;;;;;6.28;100.00;98637.25;5013909;28;20112;-83
2024/03/08 14:39:00;;;;;;;;;;;;;;;6.28;100.00;98634.63;5013874;28;20004;-82
2024/03/08 14:41:26;;;;;;;;;;;;;;;6.32;100.00;98630.94;5013771;28;20011;-82
2024/03/08 14:43:57;;;;;;;;;;;;;;;6.31;100.00;98623.97;4997206;28;19967;-88
2024/03/08 14:46:23;;;;;;;;;;;;;;;6.31;100.00;98623.13;5013760;28;19917;-87
2024/03/08 14:48:51;;;;;;;;;;;;;;;6.22;100.00;98629.63;4994569;28;19929;-90
2024/03/08 14:51:19;;;;;;;;;;;;;;;6.24;100.00;98625.16;5013740;28;19918;-85
2024/03/08 14:53:45;;;;;;;;;;;;;;;6.29;100.00;98620.56;5013030;28;20028;-85
2024/03/08 14:56:12;;;;;;;;;;;;;;;6.27;100.00;98622.41;5013388;28;20271;-87
2024/03/08 14:58:37;;;;;;;;;;;;;;;6.26;100.00;98619.84;4996078;28;20477;-83
2024/03/08 15:01:06;;;;;;;;;;;;;;;6.26;100.00;98620.69;5014480;28;20015;-82
2024/03/08 15:03:32;;;;;;;;;;;;;;;6.25;100.00;98623.38;5012013;28;20301;-83
2024/03/08 15:05:57;;;;;;;;;;;;;;;6.25;100.00;98624.22;5013342;28;19948;-86
2024/03/08 15:08:24;;;;;;;;;;;;;;;6.26;100.00;98611.94;4995626;28;20307;-82
2024/03/08 15:10:53;;;;;;;;;;;;;;;6.26;100.00;98610.16;5013458;28;20394;-85
2024/03/08 15:13:27;;;;;;;;;;;;;;;6.25;100.00;98618.97;4995795;28;19922;-82
2024/03/08 15:15:55;;;;;;;;;;;;;;;6.24;100.00;98612.03;4995359;28;19917;-86
2024/03/08 15:18:25;;;;;;;;;;;;;;;6.23;100.00;98607.66;5011809;28;19925;-82
2024/03/08 15:20:51;;;;;;;;;;;;;;;6.21;100.00;98601.63;4995609;28;19918;-81
2024/03/08 15:23:26;;;;;;;;;;;;;;;6.28;100.00;98607.47;5013371;28;19921;-94
2024/03/08 15:25:51;;;;;;;;;;;;;;;6.23;100.00;98605.03;4995774;28;19917;-88
2024/03/08 15:28:20;;;;;;;;;;;;;;;6.15;100.00;98607.16;5013381;28;20550;-85
2024/03/08 15:30:46;;;;;;;;;;;;;;;6.19;100.00;98600.84;5013055;28;20304;-90
2024/03/08 15:33:42;;;;;;;;;;;;;;;6.21;100.00;98591.09;4993787;28;19989;-90
2024/03/08 15:36:09;;;;;;;;;;;;;;;6.25;100.00;98597.06;4959934;28;20416;-87
2024/03/08 15:38:34;;;;;;;;;;;;;;;6.25;100.00;98586.56;5012994;28;19918;-90
2024/03/08 15:41:00;;;;;;;;;;;;;;;6.22;100.00;98591.94;5012498;28;19940;-87
2024/03/08 15:43:25;;;;;;;;;;;;;;;6.23;100.00;98593.66;5012749;28;19925;-81
2024/03/08 15:45:50;;;;;;;;;;;;;;;6.28;100.00;98591.69;5012783;28;19922;-87
2024/03/08 15:48:16;;;;;;;;;;;;;;;6.25;100.00;98587.41;4993769;28;19945;-82
2024/03/08 15:50:41;;;;;;;;;;;;;;;6.20;100.00;98585.91;5012750;28;19925;-87
2024/03/08 15:53:07;;;;;;;;;;;;;;;6.22;100.00;98592.78;4994039;28;19922;-90
2024/03/08 15:55:35;;;;;;;;;;;;;;;6.21;100.00;98582.34;4994935;28;19917;-90
2024/03/08 15:58:00;;;;;;;;;;;;;;;6.23;100.00;98589.25;5012458;28;19922;-88
2024/03/08 16:02:59;;;;;;;;;;;;;;;6.18;100.00;98591.25;5010449;28;20367;-89
2024/03/08 16:05:26;;;;;;;;;;;;;;;6.27;100.00;98587.34;5013496;28;19918;-95
2024/03/08 16:07:51;;;;;;;;;;;;;;;6.24;100.00;98583.09;5012813;28;19928;-81
2024/03/08 16:10:17;;;;;;;;;;;;;;;6.23;100.00;98584.00;4994495;28;19922;-82
2024/03/08 16:12:43;;;;;;;;;;;;;;;6.20;100.00;98583.28;5012141;28;21055;-83
2024/03/08 16:15:08;;;;;;;;;;;;;;;6.21;100.00;98575.31;5011630;28;20422;-82
2024/03/08 16:17:34;;;;;;;;;;;;;;;6.24;100.00;98585.72;5010839;28;19921;-83
2024/03/08 16:19:59;;;;;;;;;;;;;;;6.16;100.00;98578.16;5011229;28;20391;-83
2024/03/08 16:22:25;;;;;;;;;;;;;;;7.14;100.00;98576.34;5012171;28;19917;-86
2024/03/08 16:24:50;;;;;;;;;;;;;;;6.46;100.00;98572.44;4994457;28;19971;-84
2024/03/08 16:27:16;;;;;;;;;;;;;;;6.34;100.00;98573.00;5012041;28;20380;-82
2024/03/08 16:29:43;;;;;;;;;;;;;;;6.27;100.00;98568.91;5012094;28;19928;-86
2024/03/08 16:32:08;;;;;;;;;;;;;;;6.26;100.00;98568.06;5010748;28;19963;-86
2024/03/08 16:34:34;;;;;;;;;;;;;;;6.25;100.00;98570.78;4994453;28;19921;-87
2024/03/08 16:37:02;;;;;;;;;;;;;;;6.24;100.00;98572.56;4994347;28;19960;-83
2024/03/08 16:39:28;;;;;;;;;;;;;;;6.20;100.00;98570.97;5011580;28;20317;-90
2024/03/08 16:41:54;;;;;;;;;;;;;;;6.18;100.00;98568.41;4994507;28;19925;-87
2024/03/08 16:44:19;;;;;;;;;;;;;;;6.22;100.00;98570.91;5011948;28;19918;-86
2024/03/08 16:46:45;;;;;;;;;;;;;;;6.17;100.00;98563.22;5012011;28;19921;-89
2024/03/08 16:49:12;;;;;;;;;;;;;;;6.18;100.00;98565.78;5009576;28;19928;-86
2024/03/08 16:51:38;;;;;;;;;;;;;;;6.19;100.00;98561.41;5011811;28;20007;-84
2024/03/08 16:54:04;;;;;;;;;;;;;;;6.17;100.00;98561.47;5011691;28;19921;-82
2024/03/08 16:56:30;;;;;;;;;;;;;;;6.15;100.00;98554.56;5012086;28;19924;-86
2024/03/08 16:58:56;;;;;;;;;;;;;;;6.15;100.00;98560.66;5011534;28;20926;-82
2024/03/08 17:01:22;;;;;;;;;;;;;;;6.17;100.00;98565.84;5010834;28;19921;-88
2024/03/08 17:03:58;;;;;;;;;;;;;;;6.16;100.00;98556.28;5010662;28;20268;-91
2024/03/08 17:06:25;;;;;;;;;;;;;;;6.11;100.00;98558.22;5017658;28;19937;-83
2024/03/08 17:08:51;;;;;;;;;;;;;;;6.14;100.00;98551.06;4994136;28;19917;-85
2024/03/08 17:11:17;;;;;;;;;;;;;;;6.16;100.00;98551.00;4994039;28;20048;-86
2024/03/08 17:13:42;;;;;;;;;;;;;;;6.15;100.00;98552.75;5011882;28;20024;-86
2024/03/08 17:16:12;;;;;;;;;;;;;;;6.15;100.00;98549.28;4994081;28;19948;-85
2024/03/08 17:18:37;;;;;;;;;;;;;;;6.14;100.00;98543.19;5036012;28;20376;-85
2024/03/08 17:21:03;;;;;;;;;;;;;;;6.18;100.00;98543.91;5011798;28;19964;-86
2024/03/08 17:23:50;;;;;;;;;;;;;;;6.13;100.00;98530.09;5011732;28;19937;-91
2024/03/08 17:26:17;;;;;;;;;;;;;;;6.12;100.00;98538.91;5011213;28;19972;-89
2024/03/08 17:28:43;;;;;;;;;;;;;;;6.15;100.00;98539.63;4993924;28;20323;-92
2024/03/08 17:31:11;;;;;;;;;;;;;;;6.08;100.00;98548.72;4994821;28;20783;-87
2024/03/08 17:33:37;;;;;;;;;;;;;;;6.11;100.00;98563.47;5013399;28;19965;-87
2024/03/08 17:36:07;;;;;;;;;;;;;;;6.10;100.00;98553.91;5014997;28;19945;-93
2024/03/08 17:38:33;;;;;;;;;;;;;;;6.12;100.00;98559.94;4997742;28;19948;-89
2024/03/08 17:40:59;;;;;;;;;;;;;;;6.11;100.00;98542.44;5015040;28;19917;-88
2024/03/08 17:43:26;;;;;;;;;;;;;;;6.14;100.00;98542.31;4996518;28;19913;-85
2024/03/08 17:45:55;;;;;;;;;;;;;;;6.14;100.00;98544.94;5015048;28;19971;-93
2024/03/08 17:48:21;;;;;;;;;;;;;;;6.07;100.00;98546.16;4995727;28;19933;-85
2024/03/08 17:50:53;;;;;;;;;;;;;;;6.14;100.00;98552.81;5015286;28;19925;-90
2024/03/08 17:53:18;;;;;;;;;;;;;;;6.12;100.00;98554.69;4996693;28;19940;-83
2024/03/08 17:55:44;;;;;;;;;;;;;;;6.10;100.00;98562.63;5014844;28;19921;-89
2024/03/08 17:58:09;;;;;;;;;;;;;;;6.07;100.00;98554.88;4993279;28;19924;-86
2024/03/08 18:00:43;;;;;;;;;;;;;;;6.14;100.00;98558.09;4997125;28;19918;-92
2024/03/08 18:03:10;;;;;;;;;;;;;;;6.08;100.00;98548.72;4996149;28;20291;-87
2024/03/08 18:05:37;;;;;;;;;;;;;;;6.09;100.00;98550.41;5014833;28;19928;-90
2024/03/08 18:08:03;;;;;;;;;;;;;;;6.11;100.00;98545.06;4996986;28;19960;-87
2024/03/08 18:10:29;;;;;;;;;;;;;;;6.09;100.00;98542.50;4996821;28;19926;-86
2024/03/08 18:12:58;;;;;;;;;;;;;;;6.11;100.00;98539.81;5014569;28;19936;-87
2024/03/08 18:15:26;;;;;;;;;;;;;;;6.06;100.00;98536.53;5014796;28;19917;-87
2024/03/08 18:17:58;;;;;;;;;;;;;;;6.08;100.00;98530.31;5013515;28;20265;-87
2024/03/08 18:20:59;;;;;;;;;;;;;;;6.06;100.00;98534.75;4996597;28;19984;-91
2024/03/08 18:25:57;;;;;;;;;;;;;;;6.06;100.00;98526.03;4993024;28;20289;-84
2024/03/08 18:28:23;;;;;;;;;;;;;;;6.03;100.00;98529.66;4977109;28;19922;-88
2024/03/08 18:30:49;;;;;;;;;;;;;;;6.08;100.00;98525.03;4993699;28;20377;-85
2024/03/08 18:33:14;;;;;;;;;;;;;;;6.04;100.00;98527.88;4975728;28;19922;-86
2024/03/08 18:35:41;;;;;;;;;;;;;;;6.07;100.00;98520.69;4994780;28;20078;-84
2024/03/08 18:38:07;;;;;;;;;;;;;;;6.04;100.00;98520.84;4994638;28;20266;-87
2024/03/08 18:40:32;;;;;;;;;;;;;;;6.07;100.00;98519.84;4994293;28;19929;-88
2024/03/08 18:43:00;;;;;;;;;;;;;;;6.06;100.00;98518.13;4993761;28;19940;-93
2024/03/08 18:45:27;;;;;;;;;;;;;;;6.06;100.00;98512.88;4994361;28;19917;-87
2024/03/08 18:47:56;;;;;;;;;;;;;;;6.05;100.00;98509.41;4976240;28;19922;-89
2024/03/08 18:50:28;;;;;;;;;;;;;;;6.06;100.00;98507.63;4976564;28;19961;-92
2024/03/08 18:52:57;;;;;;;;;;;;;;;6.03;100.00;98497.22;4975954;28;19997;-89
2024/03/08 18:55:28;;;;;;;;;;;;;;;6.05;100.00;98498.00;4975992;28;19957;-92
2024/03/08 18:57:57;;;;;;;;;;;;;;;6.00;100.00;98501.72;4993653;28;19922;-88
2024/03/08 19:00:26;;;;;;;;;;;;;;;6.05;100.00;98506.78;4974687;28;19921;-91
2024/03/08 19:02:52;;;;;;;;;;;;;;;6.05;100.00;98504.13;4992838;28;19918;-86
2024/03/08 19:05:17;;;;;;;;;;;;;;;6.02;100.00;98503.44;4993622;28;20289;-87
2024/03/08 19:07:44;;;;;;;;;;;;;;;6.02;100.00;98498.16;4993594;28;20761;-86